Time;durP1;ratioP1;P1;durP2;ratioP2;P2;SDS_P1;SDS_P2;PMS_P1;PMS_P2;Temp;Humidity;BMP_temperature;BMP_pressure;BME280_temperature;BME280_humidity;BME280_pressure;Samples;Min_cycle;Max_cycle;Signal;HPM_P1;HPM_P2
2023/12/27 00:00:41;;;;;;;72.45;33.28;;;204.80;2252.80;;;;;;5034495;28;20369;-68
2023/12/27 00:03:07;;;;;;;68.90;34.53;;;180.00;2252.80;;;;;;5036671;28;20018;-83
2023/12/27 00:05:32;;;;;;;70.93;33.95;;;179.80;2252.80;;;;;;5034453;28;20063;-65
2023/12/27 00:07:58;;;;;;;74.22;32.08;;;179.80;2252.80;;;;;;5045174;28;20112;-70
2023/12/27 00:10:24;;;;;;;84.10;35.15;;;179.70;2252.80;;;;;;5035880;28;20355;-69
2023/12/27 00:12:49;;;;;;;97.78;37.70;;;179.60;2252.80;;;;;;5031498;28;20025;-65
2023/12/27 00:15:15;;;;;;;71.32;31.42;;;179.60;2252.80;;;;;;5033301;28;20024;-69
2023/12/27 00:17:41;;;;;;;73.57;32.25;;;179.60;2252.80;;;;;;4999933;28;20032;-77
2023/12/27 00:20:08;;;;;;;65.32;31.52;;;179.60;2252.80;;;;;;5015743;28;20024;-65
2023/12/27 00:22:37;;;;;;;62.78;30.08;;;179.40;2252.80;;;;;;5032603;28;20068;-71
2023/12/27 00:25:03;;;;;;;72.57;30.75;;;179.20;2252.80;;;;;;5033556;28;20049;-80
2023/12/27 00:27:29;;;;;;;89.18;34.83;;;179.20;2252.80;;;;;;5030622;28;20033;-74
2023/12/27 00:29:55;;;;;;;97.90;38.10;;;179.20;2252.80;;;;;;5033076;28;20022;-70
2023/12/27 00:32:23;;;;;;;81.30;36.05;;;154.40;2252.80;;;;;;5033658;28;20088;-75
2023/12/27 00:34:49;;;;;;;87.97;37.88;;;154.50;2252.80;;;;;;5033379;28;20025;-76
2023/12/27 00:37:15;;;;;;;135.27;47.42;;;154.40;2252.80;;;;;;5033811;28;20034;-66
2023/12/27 00:39:41;;;;;;;92.47;36.83;;;154.30;2252.80;;;;;;5048778;28;20025;-64
2023/12/27 00:42:08;;;;;;;100.57;42.72;;;154.20;2252.80;;;;;;5033830;28;20114;-74
2023/12/27 00:44:34;;;;;;;82.28;36.85;;;154.20;2252.80;;;;;;5034089;28;20599;-65
2023/12/27 00:46:59;;;;;;;62.13;30.65;;;154.00;2252.80;;;;;;5033620;28;20113;-75
2023/12/27 00:49:25;;;;;;;58.28;29.35;;;154.10;2252.80;;;;;;5034328;28;20049;-69
2023/12/27 00:51:51;;;;;;;55.92;29.20;;;154.10;2252.80;;;;;;5034404;28;20484;-69
2023/12/27 00:54:18;;;;;;;63.20;29.38;;;154.10;2252.80;;;;;;5033578;28;20024;-68
2023/12/27 00:56:44;;;;;;;50.95;25.45;;;154.10;2252.80;;;;;;5033865;28;20022;-66
2023/12/27 00:59:10;;;;;;;46.97;24.08;;;;;;;;;;5033673;28;20042;-70
2023/12/27 01:01:36;;;;;;;42.55;23.17;;;154.50;2252.80;;;;;;5032332;28;20190;-70
2023/12/27 01:04:01;;;;;;;43.58;22.90;;;154.40;2252.80;;;;;;5032788;28;20033;-68
2023/12/27 01:06:27;;;;;;;40.25;21.83;;;154.30;2252.80;;;;;;5034178;28;20045;-64
2023/12/27 01:08:53;;;;;;;37.53;21.20;;;154.30;2252.80;;;;;;5033978;28;20082;-65
2023/12/27 01:11:18;;;;;;;35.75;19.75;;;154.20;2252.80;;;;;;5032284;28;20025;-68
2023/12/27 01:13:44;;;;;;;43.67;22.58;;;154.30;2252.80;;;;;;5033359;28;20468;-67
2023/12/27 01:16:10;;;;;;;56.95;29.67;;;154.40;2252.80;;;;;;5033301;28;20017;-65
2023/12/27 01:18:36;;;;;;;74.05;35.97;;;154.20;2252.80;;;;;;5032860;28;20026;-65
2023/12/27 01:21:01;;;;;;;63.72;30.25;;;154.20;2252.80;;;;;;5033908;28;20030;-65
2023/12/27 01:23:27;;;;;;;67.68;33.05;;;154.20;2252.80;;;;;;5032822;28;20029;-64
2023/12/27 01:25:53;;;;;;;64.28;33.90;;;154.40;2252.80;;;;;;5032704;28;20069;-64
2023/12/27 01:28:18;;;;;;;66.05;33.58;;;154.20;2252.80;;;;;;5032894;28;20057;-65
2023/12/27 01:30:44;;;;;;;59.42;29.58;;;154.20;2252.80;;;;;;5035110;28;20439;-65
2023/12/27 01:33:10;;;;;;;66.60;33.95;;;154.10;2252.80;;;;;;5040518;28;20030;-66
2023/12/27 01:35:35;;;;;;;70.05;34.72;;;154.10;2252.80;;;;;;5036732;28;20021;-65
2023/12/27 01:38:02;;;;;;;61.00;30.60;;;154.10;2252.80;;;;;;5037599;28;20029;-65
2023/12/27 01:40:27;;;;;;;60.13;29.92;;;153.90;2252.80;;;;;;5036943;28;20096;-71
2023/12/27 01:42:53;;;;;;;63.78;30.50;;;153.90;2252.80;;;;;;5036382;28;20548;-65
2023/12/27 01:45:18;;;;;;;57.75;28.92;;;153.60;2252.80;;;;;;5036957;28;20079;-65
2023/12/27 01:47:46;;;;;;;60.05;28.63;;;128.60;2252.80;;;;;;5037036;28;20088;-66
2023/12/27 01:50:12;;;;;;;58.05;27.88;;;;;;;;;;5037016;28;20053;-64
2023/12/27 01:52:41;;;;;;;49.10;24.17;;;;;;;;;;5040280;28;20087;-64
2023/12/27 01:55:09;;;;;;;43.70;21.55;;;;;;;;;;5056402;28;20523;-73
2023/12/27 01:57:38;;;;;;;39.78;21.23;;;;;;;;;;5046058;28;20099;-66
2023/12/27 02:00:08;;;;;;;40.67;22.13;;;;;;;;;;5036640;28;20029;-65
2023/12/27 02:02:36;;;;;;;43.70;21.67;;;;;;;;;;5030003;28;20087;-78
2023/12/27 02:05:05;;;;;;;39.35;21.45;;;128.40;2252.80;;;;;;5019204;28;20076;-64
2023/12/27 02:07:31;;;;;;;47.00;24.75;;;128.20;2252.80;;;;;;5030734;28;20038;-83
2023/12/27 02:09:57;;;;;;;50.90;26.05;;;128.30;2252.80;;;;;;5031584;28;20026;-64
2023/12/27 02:12:29;;;;;;;54.13;27.23;;;128.40;2252.80;;;;;;5023415;28;20036;-66
2023/12/27 02:14:54;;;;;;;58.08;28.90;;;128.30;2252.80;;;;;;5025587;28;20424;-69
2023/12/27 02:17:21;;;;;;;64.10;31.23;;;128.30;2252.80;;;;;;5024265;28;20602;-65
2023/12/27 02:19:47;;;;;;;63.90;31.20;;;128.30;2252.80;;;;;;5026324;28;20096;-69
2023/12/27 02:22:19;;;;;;;71.88;34.17;;;128.30;2252.80;;;;;;5004702;28;20021;-68
2023/12/27 02:24:53;;;;;;;62.10;31.13;;;128.30;2252.80;;;;;;5032773;28;20025;-65
2023/12/27 02:27:19;;;;;;;62.35;31.05;;;128.20;2252.80;;;;;;5035755;28;20045;-66
2023/12/27 02:29:45;;;;;;;57.58;30.38;;;128.40;2252.80;;;;;;5027133;28;20088;-65
2023/12/27 02:32:11;;;;;;;55.97;28.63;;;128.40;2252.80;;;;;;5030382;28;20561;-65
2023/12/27 02:34:39;;;;;;;54.47;27.92;;;128.30;2252.80;;;;;;5028947;28;20033;-65
2023/12/27 02:37:05;;;;;;;53.42;27.77;;;128.20;2252.80;;;;;;5030789;28;20492;-67
2023/12/27 02:39:31;;;;;;;54.58;29.30;;;128.10;2252.80;;;;;;5036396;28;20128;-69
2023/12/27 02:41:57;;;;;;;59.13;29.65;;;128.20;2252.80;;;;;;5027591;28;20026;-68
2023/12/27 02:44:26;;;;;;;58.17;30.33;;;128.20;2252.80;;;;;;5022643;28;20080;-66
2023/12/27 02:47:01;;;;;;;60.15;31.55;;;128.20;2252.80;;;;;;5030305;28;20041;-69
2023/12/27 02:49:27;;;;;;;63.28;33.60;;;128.20;2252.80;;;;;;5033438;28;20033;-72
2023/12/27 02:51:53;;;;;;;67.15;34.08;;;128.20;2252.80;;;;;;5015556;28;20543;-73
2023/12/27 02:54:18;;;;;;;74.10;38.28;;;128.30;2252.80;;;;;;5029947;28;20028;-69
2023/12/27 02:56:44;;;;;;;71.93;36.67;;;128.20;2252.80;;;;;;5035238;28;20112;-68
2023/12/27 02:59:10;;;;;;;71.88;35.92;;;128.20;2252.80;;;;;;5017814;28;20100;-72
2023/12/27 03:01:39;;;;;;;74.65;39.97;;;128.30;2252.80;;;;;;5035847;28;20029;-79
2023/12/27 03:04:04;;;;;;;86.95;44.13;;;128.20;2252.80;;;;;;5031415;28;20031;-65
2023/12/27 03:06:30;;;;;;;98.93;51.92;;;128.20;2252.80;;;;;;5035493;28;20038;-64
2023/12/27 03:08:56;;;;;;;78.78;42.08;;;128.20;2252.80;;;;;;5036108;28;20092;-69
2023/12/27 03:11:21;;;;;;;94.63;51.28;;;128.20;2252.80;;;;;;5032624;28;20033;-72
2023/12/27 03:13:47;;;;;;;78.65;41.90;;;128.10;2252.80;;;;;;5030867;28;20427;-65
2023/12/27 03:16:17;;;;;;;74.35;38.78;;;128.10;2252.80;;;;;;5035016;28;20104;-71
2023/12/27 03:18:43;;;;;;;79.68;39.67;;;128.10;2252.80;;;;;;5035438;28;20068;-74
2023/12/27 03:21:09;;;;;;;75.38;37.95;;;128.20;2252.80;;;;;;5035721;28;20461;-66
2023/12/27 03:23:35;;;;;;;74.22;38.08;;;128.20;2252.80;;;;;;5034723;28;20021;-65
2023/12/27 03:26:03;;;;;;;76.50;38.75;;;128.20;2252.80;;;;;;5036233;28;20025;-64
2023/12/27 03:28:29;;;;;;;76.18;37.83;;;128.20;2252.80;;;;;;5035036;28;20498;-75
2023/12/27 03:30:54;;;;;;;72.68;37.55;;;128.10;2252.80;;;;;;5032916;28;20152;-65
2023/12/27 03:33:23;;;;;;;80.65;39.38;;;128.20;2252.80;;;;;;5034815;28;20570;-66
2023/12/27 03:35:49;;;;;;;88.32;43.75;;;103.30;2227.20;;;;;;5034635;28;20101;-66
2023/12/27 03:38:14;;;;;;;87.75;43.00;;;103.20;2227.20;;;;;;5034920;28;20107;-65
2023/12/27 03:40:40;;;;;;;84.35;42.42;;;103.10;2227.20;;;;;;5035113;28;20496;-69
2023/12/27 03:43:06;;;;;;;93.43;43.97;;;103.20;2227.20;;;;;;5034247;28;20391;-65
2023/12/27 03:45:31;;;;;;;96.78;44.47;;;103.20;2227.20;;;;;;5034858;28;20061;-64
2023/12/27 03:47:57;;;;;;;97.03;45.30;;;103.10;2227.20;;;;;;5028690;28;20044;-69
2023/12/27 03:50:23;;;;;;;112.68;56.25;;;103.10;2227.20;;;;;;5035046;28;20038;-64
2023/12/27 03:52:49;;;;;;;141.02;81.63;;;103.10;2227.20;;;;;;5034458;28;20060;-65
2023/12/27 03:55:18;;;;;;;133.50;75.03;;;103.10;2227.20;;;;;;5034648;28;20033;-64
2023/12/27 03:57:44;;;;;;;106.18;57.08;;;103.30;2227.20;;;;;;5034863;28;20062;-66
2023/12/27 04:00:11;;;;;;;91.35;48.00;;;103.10;2227.20;;;;;;5034826;28;20037;-75
2023/12/27 04:02:39;;;;;;;87.95;41.83;;;103.10;2227.20;;;;;;5025478;28;20037;-68
2023/12/27 04:05:05;;;;;;;74.88;40.10;;;103.10;2227.20;;;;;;5023096;28;20022;-68
2023/12/27 04:07:31;;;;;;;80.57;40.42;;;103.20;2227.20;;;;;;5034758;28;20041;-65
2023/12/27 04:09:57;;;;;;;64.70;33.03;;;103.20;2227.20;;;;;;5034637;28;20608;-71
2023/12/27 04:12:22;;;;;;;62.17;32.58;;;103.20;2227.20;;;;;;5034108;28;20392;-70
2023/12/27 04:14:48;;;;;;;130.85;73.18;;;103.20;2227.20;;;;;;5033683;28;20072;-72
2023/12/27 04:17:15;;;;;;;66.03;34.67;;;103.10;2227.20;;;;;;5033994;28;20049;-66
2023/12/27 04:19:41;;;;;;;60.80;31.88;;;103.10;2227.20;;;;;;5034428;28;20075;-75
2023/12/27 04:22:07;;;;;;;64.25;31.60;;;103.00;2227.20;;;;;;5029414;28;20025;-65
2023/12/27 04:24:32;;;;;;;58.92;29.25;;;102.90;2227.20;;;;;;5032584;28;20037;-68
2023/12/27 04:26:58;;;;;;;64.03;33.45;;;102.90;2227.20;;;;;;5033794;28;20041;-65
2023/12/27 04:29:24;;;;;;;111.47;59.08;;;103.00;2227.20;;;;;;5033529;28;20025;-65
2023/12/27 04:31:52;;;;;;;67.70;37.65;;;103.00;2227.20;;;;;;5033713;28;20032;-73
2023/12/27 04:34:18;;;;;;;54.03;29.52;;;103.00;2227.20;;;;;;5033661;28;20029;-65
2023/12/27 04:36:46;;;;;;;55.13;29.45;;;103.00;2227.20;;;;;;5034100;28;20499;-69
2023/12/27 04:39:12;;;;;;;48.75;26.45;;;103.10;2227.20;;;;;;5031679;28;20022;-72
2023/12/27 04:41:37;;;;;;;46.83;25.85;;;103.10;2227.20;;;;;;5030498;28;20029;-75
2023/12/27 04:44:03;;;;;;;57.75;29.38;;;103.00;2227.20;;;;;;5033470;28;20477;-65
2023/12/27 04:46:35;;;;;;;59.85;30.88;;;102.80;2227.20;;;;;;5033062;28;20452;-65
2023/12/27 04:49:01;;;;;;;49.10;26.35;;;102.80;2227.20;;;;;;5034020;28;20408;-67
2023/12/27 04:51:27;;;;;;;46.38;24.48;;;102.70;2227.20;;;;;;5033078;28;20083;-67
2023/12/27 04:53:55;;;;;;;42.97;22.90;;;102.60;2227.20;;;;;;5033800;28;20029;-67
2023/12/27 04:56:21;;;;;;;41.10;22.45;;;102.50;2227.20;;;;;;5032948;28;20026;-64
2023/12/27 04:58:49;;;;;;;39.83;21.15;;;102.60;2227.20;;;;;;5029203;28;20068;-72
2023/12/27 05:01:16;;;;;;;39.78;20.45;;;102.60;2227.20;;;;;;5033928;28;20075;-73
2023/12/27 05:03:44;;;;;;;47.65;23.75;;;102.60;2227.20;;;;;;5033255;28;20041;-68
2023/12/27 05:06:11;;;;;;;46.15;22.80;;;102.60;2227.20;;;;;;5033331;28;20040;-71
2023/12/27 05:08:41;;;;;;;54.55;27.48;;;102.70;2227.20;;;;;;5033971;28;20034;-68
2023/12/27 05:11:15;;;;;;;77.22;43.17;;;102.70;2227.20;;;;;;5016541;28;20029;-72
2023/12/27 05:13:41;;;;;;;83.00;45.38;;;102.70;2227.20;;;;;;5033846;28;20024;-65
2023/12/27 05:16:17;;;;;;;95.50;47.65;;;102.70;2227.20;;;;;;5033930;28;20018;-66
2023/12/27 05:18:44;;;;;;;88.95;43.47;;;102.80;2227.20;;;;;;5032610;28;20022;-65
2023/12/27 05:21:11;;;;;;;84.20;42.15;;;102.80;2227.20;;;;;;5033008;28;20025;-64
2023/12/27 05:23:37;;;;;;;80.55;41.42;;;102.80;2227.20;;;;;;5030968;28;20077;-68
2023/12/27 05:26:07;;;;;;;81.72;42.72;;;102.80;2227.20;;;;;;5033539;28;20056;-64
2023/12/27 05:28:33;;;;;;;72.68;35.88;;;102.80;2227.20;;;;;;5033464;28;20476;-70
2023/12/27 05:30:58;;;;;;;64.65;33.38;;;102.70;2227.20;;;;;;5033096;28;20076;-66
2023/12/27 05:33:24;;;;;;;73.05;35.15;;;102.60;2227.20;;;;;;5033477;28;20108;-70
2023/12/27 05:35:51;;;;;;;53.10;29.13;;;102.60;2227.20;;;;;;5033554;28;20030;-68
2023/12/27 05:38:17;;;;;;;61.05;31.23;;;102.60;2227.20;;;;;;5024693;28;20092;-64
2023/12/27 05:40:43;;;;;;;87.22;44.90;;;102.60;2227.20;;;;;;5030150;28;20021;-66
2023/12/27 05:43:09;;;;;;;84.15;42.10;;;102.60;2227.20;;;;;;5033158;28;20018;-65
2023/12/27 05:45:35;;;;;;;69.45;36.80;;;102.60;2227.20;;;;;;5033147;28;20108;-69
2023/12/27 05:48:00;;;;;;;58.50;32.13;;;102.60;2227.20;;;;;;5033173;28;20033;-66
2023/12/27 05:50:27;;;;;;;56.83;30.27;;;102.60;2227.20;;;;;;5033737;28;20022;-67
2023/12/27 05:52:56;;;;;;;63.53;34.97;;;102.50;2227.20;;;;;;5033515;28;20037;-65
2023/12/27 05:55:23;;;;;;;45.22;25.30;;;102.50;2227.20;;;;;;5033591;28;20029;-67
2023/12/27 05:57:48;;;;;;;58.80;28.98;;;102.40;2227.20;;;;;;5023487;28;20053;-65
2023/12/27 06:00:17;;;;;;;88.35;39.72;;;102.40;2227.20;;;;;;5029262;28;20033;-65
2023/12/27 06:02:43;;;;;;;110.30;48.90;;;102.40;2227.20;;;;;;5022418;28;20026;-72
2023/12/27 06:05:11;;;;;;;125.35;56.17;;;102.40;2227.20;;;;;;5024935;28;20037;-70
2023/12/27 06:07:37;;;;;;;159.25;65.20;;;102.50;2227.20;;;;;;5032356;28;20468;-69
2023/12/27 06:10:05;;;;;;;177.27;71.88;;;102.50;2227.20;;;;;;5033535;28;20047;-70
2023/12/27 06:12:31;;;;;;;169.38;73.53;;;102.60;2227.20;;;;;;5032327;28;20036;-70
2023/12/27 06:14:56;;;;;;;396.75;187.27;;;102.60;2227.20;;;;;;5033214;28;20021;-64
2023/12/27 06:17:22;;;;;;;286.92;129.18;;;102.60;2227.20;;;;;;5034340;28;20032;-67
2023/12/27 06:19:48;;;;;;;225.43;102.93;;;102.60;2227.20;;;;;;5035662;28;20388;-67
2023/12/27 06:22:13;;;;;;;229.20;94.13;;;102.60;2227.20;;;;;;5030919;28;20071;-65
2023/12/27 06:24:40;;;;;;;140.23;70.80;;;102.50;2227.20;;;;;;5035380;28;20117;-64
2023/12/27 06:27:06;;;;;;;130.93;64.95;;;102.50;2227.20;;;;;;5030591;28;20554;-65
2023/12/27 06:29:33;;;;;;;376.63;123.35;;;102.50;2227.20;;;;;;5036577;28;20028;-65
2023/12/27 06:31:59;;;;;;;199.25;76.78;;;102.50;2227.20;;;;;;5035932;28;20053;-68
2023/12/27 06:34:25;;;;;;;188.25;84.85;;;102.60;2227.20;;;;;;5035622;28;20487;-72
2023/12/27 06:36:52;;;;;;;218.77;102.18;;;102.70;2227.20;;;;;;5035469;28;20109;-66
2023/12/27 06:39:18;;;;;;;186.57;88.97;;;102.80;2227.20;;;;;;5035885;28;20033;-69
2023/12/27 06:41:44;;;;;;;133.50;63.78;;;102.80;2227.20;;;;;;5024851;28;20022;-67
2023/12/27 06:44:09;;;;;;;121.45;57.85;;;102.90;2227.20;;;;;;5034257;28;20056;-69
2023/12/27 06:46:35;;;;;;;97.38;50.17;;;102.90;2227.20;;;;;;5036023;28;20085;-64
2023/12/27 06:49:01;;;;;;;117.47;61.78;;;102.90;2227.20;;;;;;5036416;28;20030;-66
2023/12/27 06:51:30;;;;;;;133.82;66.55;;;103.00;2227.20;;;;;;5036202;28;20477;-66
2023/12/27 06:53:55;;;;;;;158.93;81.55;;;103.00;2227.20;;;;;;5036309;28;20047;-64
2023/12/27 06:56:24;;;;;;;166.98;88.53;;;103.10;2227.20;;;;;;5036522;28;20528;-65
2023/12/27 06:58:50;;;;;;;156.13;82.13;;;103.10;2227.20;;;;;;5035705;28;20045;-75
2023/12/27 07:01:15;;;;;;;186.25;90.03;;;103.20;2227.20;;;;;;5032911;28;20030;-79
2023/12/27 07:03:41;;;;;;;199.35;98.80;;;128.50;2252.80;;;;;;5032356;28;20424;-66
2023/12/27 07:06:07;;;;;;;153.93;78.53;;;154.40;2252.80;;;;;;5036018;28;20033;-63
2023/12/27 07:08:34;;;;;;;137.43;69.88;;;204.90;2252.80;;;;;;5036503;28;20041;-64
2023/12/27 07:11:00;;;;;;;134.32;71.30;;;205.60;2252.80;;;;;;5037298;28;20048;-65
2023/12/27 07:13:25;;;;;;;113.93;61.08;;;230.50;2252.80;;;;;;5035982;28;20104;-75
2023/12/27 07:15:51;;;;;;;111.45;59.67;;;230.60;2252.80;;;;;;5036094;28;20039;-68
2023/12/27 07:18:17;;;;;;;137.48;72.18;;;;;;;;;;5035667;28;20109;-75
2023/12/27 07:20:43;;;;;;;126.95;67.68;;;281.60;2278.40;;;;;;5035511;28;20372;-71
2023/12/27 07:23:10;;;;;;;162.23;81.13;;;281.60;2278.40;;;;;;5027603;28;20017;-77
2023/12/27 07:25:36;;;;;;;211.88;106.10;;;256.40;2252.80;;;;;;5033200;28;20017;-78
2023/12/27 07:28:01;;;;;;;340.02;156.93;;;231.10;2252.80;;;;;;5034959;28;20033;-84
2023/12/27 07:30:27;;;;;;;270.40;129.30;;;230.50;2252.80;;;;;;5035541;28;20112;-79
2023/12/27 07:32:53;;;;;;;306.73;127.35;;;205.30;2252.80;;;;;;5035554;28;20053;-73
2023/12/27 07:35:19;;;;;;;287.85;120.68;;;205.10;2252.80;;;;;;5035608;28;20376;-82
2023/12/27 07:37:46;;;;;;;251.48;103.07;;;180.10;2252.80;;;;;;5035089;28;20083;-66
2023/12/27 07:40:13;;;;;;;224.48;95.05;;;180.00;2252.80;;;;;;5017261;28;20084;-69
2023/12/27 07:42:40;;;;;;;232.70;101.40;;;180.10;2252.80;;;;;;5032509;28;20033;-65
2023/12/27 07:45:09;;;;;;;251.93;109.85;;;204.80;2252.80;;;;;;5030243;28;20018;-66
2023/12/27 07:47:34;;;;;;;248.98;108.32;;;204.90;2252.80;;;;;;5034516;28;20060;-71
2023/12/27 07:50:00;;;;;;;224.77;95.80;;;204.80;2252.80;;;;;;5034487;28;20017;-70
2023/12/27 07:52:26;;;;;;;225.02;101.03;;;180.10;2252.80;;;;;;5034903;28;20025;-81
2023/12/27 07:54:52;;;;;;;194.30;94.47;;;180.00;2252.80;;;;;;5035021;28;20025;-74
2023/12/27 07:57:18;;;;;;;198.02;95.68;;;179.90;2252.80;;;;;;5034870;28;20137;-65
2023/12/27 07:59:43;;;;;;;180.23;89.97;;;179.90;2252.80;;;;;;5034451;28;20049;-72
2023/12/27 08:02:09;;;;;;;185.25;93.72;;;179.70;2252.80;;;;;;5034756;28;20036;-65
2023/12/27 08:04:35;;;;;;;202.55;105.43;;;179.60;2252.80;;;;;;5030589;28;20432;-69
2023/12/27 08:07:01;;;;;;;190.65;100.75;;;179.60;2252.80;;;;;;5034536;28;20040;-65
2023/12/27 08:09:27;;;;;;;162.13;92.25;;;179.60;2252.80;;;;;;5034326;28;20025;-66
2023/12/27 08:11:53;;;;;;;145.90;82.20;;;179.70;2252.80;;;;;;5034237;28;20027;-65
2023/12/27 08:14:18;;;;;;;135.95;77.30;;;179.60;2252.80;;;;;;5034613;28;20025;-71
2023/12/27 08:16:44;;;;;;;175.27;92.32;;;179.60;2252.80;;;;;;5034091;28;20033;-67
2023/12/27 08:19:10;;;;;;;144.02;79.55;;;179.60;2252.80;;;;;;5033998;28;20129;-75
2023/12/27 08:21:35;;;;;;;142.32;81.28;;;179.60;2252.80;;;;;;5032608;28;20507;-82
2023/12/27 08:24:01;;;;;;;138.68;79.90;;;179.60;2252.80;;;;;;5030269;28;20029;-65
2023/12/27 08:26:27;;;;;;;127.35;72.30;;;179.80;2252.80;;;;;;5034765;28;20562;-77
2023/12/27 08:28:52;;;;;;;100.57;60.97;;;180.00;2252.80;;;;;;5033993;28;20036;-66
2023/12/27 08:31:18;;;;;;;210.65;120.47;;;204.90;2252.80;;;;;;5033668;28;20017;-70
2023/12/27 08:33:48;;;;;;;148.18;73.03;;;205.30;2252.80;;;;;;5033643;28;20384;-72
2023/12/27 08:36:14;;;;;;;526.42;188.10;;;205.70;2252.80;;;;;;5035216;28;20052;-64
2023/12/27 08:38:41;;;;;;;390.63;159.63;;;230.70;2252.80;;;;;;5034782;28;20061;-66
2023/12/27 08:41:06;;;;;;;355.90;152.55;;;231.20;2252.80;;;;;;5033715;28;20021;-66
2023/12/27 08:43:35;;;;;;;288.95;129.88;;;256.80;2252.80;;;;;;5029609;28;20044;-69
2023/12/27 08:46:01;;;;;;;162.00;85.90;;;332.90;2329.60;;;;;;5033086;28;20033;-68
2023/12/27 08:48:26;;;;;;;120.30;65.78;;;308.00;2304.00;;;;;;5033596;28;20080;-72
2023/12/27 08:50:52;;;;;;;108.97;61.13;;;282.50;2278.40;;;;;;5033729;28;20025;-64
2023/12/27 08:53:18;;;;;;;112.95;62.80;;;281.60;2278.40;;;;;;5032197;28;20021;-73
2023/12/27 08:55:44;;;;;;;109.88;63.90;;;256.30;2252.80;;;;;;5034205;28;20025;-66
2023/12/27 08:58:11;;;;;;;101.38;57.88;;;231.30;2252.80;;;;;;5033660;28;20040;-65
2023/12/27 09:00:36;;;;;;;106.75;61.70;;;231.10;2252.80;;;;;;5029265;28;20021;-78
2023/12/27 09:03:03;;;;;;;140.38;78.93;;;231.10;2252.80;;;;;;5033389;28;20047;-68
2023/12/27 09:05:28;;;;;;;121.93;69.65;;;231.00;1920.00;;;;;;5033195;28;20044;-65
2023/12/27 09:07:54;;;;;;;147.32;81.45;;;231.10;2252.80;;;;;;5033586;28;20033;-76
2023/12/27 09:10:20;;;;;;;111.45;61.80;;;231.10;2252.80;;;;;;5034105;28;20056;-65
2023/12/27 09:12:45;;;;;;;108.00;56.83;;;231.10;2252.80;;;;;;5033780;28;20079;-75
2023/12/27 09:15:13;;;;;;;104.30;56.67;;;231.10;2252.80;;;;;;5033127;28;20032;-66
2023/12/27 09:17:39;;;;;;;87.55;48.20;;;231.10;2252.80;;;;;;5032501;28;20550;-65
2023/12/27 09:20:09;;;;;;;77.60;43.33;;;231.00;2252.80;;;;;;5034166;28;20021;-71
2023/12/27 09:22:35;;;;;;;64.65;37.95;;;231.00;2252.80;;;;;;5033176;28;20057;-64
2023/12/27 09:25:01;;;;;;;93.63;54.45;;;230.90;2252.80;;;;;;5033007;28;20093;-64
2023/12/27 09:27:27;;;;;;;89.53;49.88;;;230.80;2252.80;;;;;;5033936;28;20120;-70
2023/12/27 09:29:55;;;;;;;73.53;40.08;;;230.90;2252.80;;;;;;5016228;28;20057;-65
2023/12/27 09:32:21;;;;;;;91.78;48.70;;;230.80;2252.80;;;;;;5033074;28;20096;-64
2023/12/27 09:34:47;;;;;;;100.70;52.92;;;230.90;2252.80;;;;;;5033140;28;20785;-66
2023/12/27 09:37:12;;;;;;;79.68;40.70;;;230.90;2252.80;;;;;;5033760;28;20032;-65
2023/12/27 09:39:41;;;;;;;58.45;33.35;;;230.90;2252.80;;;;;;5033781;28;20104;-70
2023/12/27 09:42:06;;;;;;;40.58;24.67;;;230.80;2252.80;;;;;;5033128;28;20029;-67
2023/12/27 09:44:37;;;;;;;48.08;30.00;;;;;;;;;;5034386;28;20087;-85
2023/12/27 09:47:05;;;;;;;64.30;40.88;;;;;;;;;;5035424;28;20046;-69
2023/12/27 09:49:32;;;;;;;57.10;35.72;;;;;;;;;;5028995;28;20083;-65
2023/12/27 09:51:59;;;;;;;63.97;39.75;;;;;;;;;;5033025;28;20191;-65
2023/12/27 09:54:25;;;;;;;51.85;34.72;;;;;;;;;;5035344;28;20033;-67
2023/12/27 09:56:51;;;;;;;50.10;31.17;;;;;;;;;;5036263;28;20124;-66
2023/12/27 09:59:24;;;;;;;65.15;35.13;;;;;;;;;;5036642;28;20107;-65
2023/12/27 10:01:52;;;;;;;52.88;29.98;;;256.30;2252.80;;;;;;5034412;28;20064;-66
2023/12/27 10:04:22;;;;;;;49.08;28.40;;;256.00;2252.80;;;;;;5035788;28;20041;-65
2023/12/27 10:06:53;;;;;;;94.50;54.17;;;256.00;2252.80;;;;;;5035619;28;20038;-68
2023/12/27 10:09:19;;;;;;;70.28;36.63;;;256.10;1920.00;;;;;;5034384;28;20447;-65
2023/12/27 10:11:45;;;;;;;82.63;42.33;;;256.30;2252.80;;;;;;5036064;28;20025;-66
2023/12/27 10:14:13;;;;;;;118.13;65.55;;;256.30;2252.80;;;;;;5035640;28;20026;-66
2023/12/27 10:16:39;;;;;;;75.60;40.47;;;256.30;2252.80;;;;;;5035470;28;20047;-66
2023/12/27 10:19:07;;;;;;;75.63;40.70;;;256.40;2252.80;;;;;;5035761;28;20480;-69
2023/12/27 10:21:43;;;;;;;88.25;48.30;;;256.50;2252.80;;;;;;5036121;28;20415;-65
2023/12/27 10:24:12;;;;;;;99.47;52.92;;;256.60;2252.80;;;;;;5034860;28;20083;-65
2023/12/27 10:26:38;;;;;;;99.15;52.80;;;256.70;2252.80;;;;;;5034204;28;20029;-64
2023/12/27 10:29:05;;;;;;;87.93;49.35;;;256.90;2252.80;;;;;;5034461;28;20025;-66
2023/12/27 10:31:32;;;;;;;80.15;45.85;;;281.60;2278.40;;;;;;5035066;28;20362;-70
2023/12/27 10:34:02;;;;;;;58.33;35.42;;;281.70;2278.40;;;;;;5035608;28;20091;-65
2023/12/27 10:36:29;;;;;;;54.78;34.13;;;281.70;2278.40;;;;;;5035081;28;20112;-66
2023/12/27 10:38:56;;;;;;;57.22;33.90;;;281.80;2278.40;;;;;;5034986;28;20048;-68
2023/12/27 10:41:23;;;;;;;45.15;25.75;;;281.90;2278.40;;;;;;5040482;28;20022;-66
2023/12/27 10:43:50;;;;;;;57.67;28.70;;;281.90;2278.40;;;;;;5035304;28;20102;-69
2023/12/27 10:46:17;;;;;;;74.35;34.90;;;282.50;2278.40;;;;;;5033459;28;20030;-66
2023/12/27 10:48:49;;;;;;;69.35;30.95;;;332.80;2329.60;;;;;;5034517;28;20030;-68
2023/12/27 10:51:21;;;;;;;59.85;27.88;;;358.40;2329.60;;;;;;5043087;28;20544;-65
2023/12/27 10:53:49;;;;;;;52.00;27.17;;;358.60;2329.60;;;;;;5055137;28;20029;-65
2023/12/27 10:56:19;;;;;;;68.65;38.10;;;359.20;2329.60;;;;;;5054819;28;20017;-65
2023/12/27 10:58:49;;;;;;;64.07;39.42;;;384.40;2329.60;;;;;;5039395;28;20798;-65
2023/12/27 11:01:15;;;;;;;54.92;34.15;;;384.70;2329.60;;;;;;5038996;28;20033;-66
2023/12/27 11:03:43;;;;;;;41.90;25.65;;;409.90;2355.20;;;;;;5033083;28;20026;-65
2023/12/27 11:06:13;;;;;;;36.83;22.20;;;410.40;2355.20;;;;;;5034154;28;20777;-70
2023/12/27 11:08:40;;;;;;;35.20;21.33;;;410.10;2355.20;;;;;;5033016;28;20033;-65
2023/12/27 11:11:08;;;;;;;42.42;26.95;;;410.40;2355.20;;;;;;5033428;28;20014;-65
2023/12/27 11:13:36;;;;;;;40.75;23.40;;;435.20;2227.20;;;;;;5034481;28;20033;-65
2023/12/27 11:16:03;;;;;;;30.30;19.58;;;435.40;2227.20;;;;;;5034705;28;20093;-66
2023/12/27 11:18:31;;;;;;;35.97;24.33;;;435.20;2176.00;;;;;;5033174;28;20026;-67
2023/12/27 11:20:57;;;;;;;32.55;21.45;;;435.30;2201.60;;;;;;5033119;28;20483;-65
2023/12/27 11:23:24;;;;;;;24.42;14.98;;;435.70;2124.80;;;;;;5033187;28;20072;-64
2023/12/27 11:25:55;;;;;;;19.52;11.63;;;435.70;2073.60;;;;;;5033038;28;20021;-65
2023/12/27 11:28:21;;;;;;;13.95;9.57;;;435.80;2099.20;;;;;;5031666;28;20424;-65
2023/12/27 11:30:47;;;;;;;14.25;8.65;;;435.70;2073.60;;;;;;5031827;28;20120;-65
2023/12/27 11:33:22;;;;;;;16.60;9.75;;;435.80;2022.40;;;;;;5032866;28;20021;-66
2023/12/27 11:35:48;;;;;;;9.77;5.78;;;435.90;2022.40;;;;;;5033076;28;20116;-65
2023/12/27 11:38:17;;;;;;;13.35;7.68;;;435.70;1920.00;;;;;;5022577;28;20053;-64
2023/12/27 11:40:46;;;;;;;13.70;9.25;;;435.70;1920.00;;;;;;5027977;28;20033;-65
2023/12/27 11:43:23;;;;;;;12.30;7.93;;;435.70;1971.20;;;;;;5043086;28;20036;-65
2023/12/27 11:45:58;;;;;;;12.20;6.90;;;435.70;1945.60;;;;;;5051845;28;20029;-64
2023/12/27 11:48:27;;;;;;;18.17;10.80;;;436.00;1894.40;;;;;;5048182;28;20048;-65
2023/12/27 11:50:59;;;;;;;14.20;8.68;;;435.70;1894.40;;;;;;5035968;28;20025;-73
2023/12/27 11:53:31;;;;;;;114.45;55.88;;;435.70;1868.80;;;;;;5031327;28;20045;-66
2023/12/27 11:56:01;;;;;;;76.53;41.03;;;435.40;1817.60;;;;;;5031787;28;20477;-69
2023/12/27 11:58:37;;;;;;;18.75;11.07;;;435.60;1817.60;;;;;;5028839;28;20144;-70